Time;durP1;ratioP1;P1;durP2;ratioP2;P2;SDS_P1;SDS_P2;PMS_P1;PMS_P2;Temp;Humidity;BMP_temperature;BMP_pressure;BME280_temperature;BME280_humidity;BME280_pressure;Samples;Min_cycle;Max_cycle;Signal;HPM_P1;HPM_P2
2022/03/25 00:00:32;;;;;;;66.97;32.65;;;12.30;82.90;;;;;;7345349;19;111991;-90
2022/03/25 00:02:59;;;;;;;65.75;34.10;;;12.30;82.60;;;;;;7343807;19;110122;-91
2022/03/25 00:05:26;;;;;;;62.83;33.30;;;12.30;82.80;;;;;;7344055;19;111596;-91
2022/03/25 00:07:54;;;;;;;64.95;33.22;;;12.30;82.40;;;;;;7344389;19;112229;-91
2022/03/25 00:10:21;;;;;;;63.30;32.80;;;12.30;82.40;;;;;;7349733;19;110255;-91
2022/03/25 00:12:49;;;;;;;66.80;34.05;;;12.30;81.70;;;;;;7341163;19;111919;-91
2022/03/25 00:15:16;;;;;;;62.90;32.58;;;12.30;82.40;;;;;;7343876;19;110529;-91
2022/03/25 00:17:44;;;;;;;61.25;33.00;;;12.30;81.90;;;;;;7344926;19;111753;-90
2022/03/25 00:20:11;;;;;;;63.95;33.08;;;12.30;81.70;;;;;;7341993;19;114061;-90
2022/03/25 00:22:38;;;;;;;68.30;35.78;;;12.20;82.20;;;;;;7343717;19;110015;-90
2022/03/25 00:25:06;;;;;;;64.32;34.78;;;12.20;82.30;;;;;;7344580;19;110392;-91
2022/03/25 00:27:33;;;;;;;64.72;35.55;;;12.20;82.40;;;;;;7343868;19;111811;-91
2022/03/25 00:30:02;;;;;;;69.18;35.08;;;12.10;82.20;;;;;;7343936;19;110167;-91
2022/03/25 00:32:29;;;;;;;62.25;31.73;;;12.10;81.90;;;;;;7347127;19;111798;-91
2022/03/25 00:34:56;;;;;;;66.63;33.90;;;12.10;81.70;;;;;;7344680;19;111057;-91
2022/03/25 00:37:24;;;;;;;;;;;12.00;81.40;;;;;;7343146;19;110418;-91
2022/03/25 00:39:51;;;;;;;67.72;32.85;;;11.90;82.60;;;;;;7350605;19;108229;-92
2022/03/25 00:42:18;;;;;;;64.78;33.35;;;11.80;81.60;;;;;;7344468;19;110403;-89
2022/03/25 00:44:47;;;;;;;68.75;32.78;;;11.80;81.80;;;;;;7343550;19;110905;-91
2022/03/25 00:47:14;;;;;;;62.35;32.80;;;11.80;82.00;;;;;;7345079;19;111732;-90
2022/03/25 00:49:42;;;;;;;59.30;31.67;;;11.70;81.80;;;;;;7345531;19;111696;-91
2022/03/25 00:52:09;;;;;;;58.22;31.27;;;11.70;81.90;;;;;;7340421;19;111609;-92
2022/03/25 00:54:37;;;;;;;65.75;33.95;;;11.60;81.90;;;;;;7348689;19;111611;-91
2022/03/25 00:57:04;;;;;;;63.55;30.83;;;11.50;82.50;;;;;;7340708;19;110685;-91
2022/03/25 00:59:31;;;;;;;66.68;34.60;;;11.50;82.40;;;;;;7341917;19;111687;-91
2022/03/25 01:02:00;;;;;;;63.90;33.70;;;11.40;83.30;;;;;;7345857;19;110490;-91
2022/03/25 01:04:28;;;;;;;72.65;36.65;;;11.30;83.50;;;;;;7344573;19;110915;-91
2022/03/25 01:06:55;;;;;;;66.93;33.97;;;11.20;84.80;;;;;;7344131;19;112571;-91
2022/03/25 01:09:23;;;;;;;63.85;34.92;;;11.10;84.60;;;;;;7341877;19;110011;-91
2022/03/25 01:11:50;;;;;;;75.53;37.00;;;11.00;85.70;;;;;;7343544;19;113904;-92
2022/03/25 01:14:17;;;;;;;63.00;31.42;;;10.80;88.20;;;;;;7348909;19;111067;-91
2022/03/25 01:16:44;;;;;;;56.40;31.25;;;10.80;86.20;;;;;;7344270;19;111280;-91
2022/03/25 01:19:11;;;;;;;52.20;28.60;;;10.70;85.20;;;;;;7343466;19;112237;-91
2022/03/25 01:21:39;;;;;;;59.65;30.67;;;10.80;84.70;;;;;;7343829;19;110385;-91
2022/03/25 01:24:06;;;;;;;63.17;31.10;;;10.80;84.20;;;;;;7344000;19;110410;-91
2022/03/25 01:26:34;;;;;;;69.85;35.53;;;10.80;84.20;;;;;;7342578;19;113235;-91
2022/03/25 01:29:01;;;;;;;67.70;34.15;;;10.70;85.60;;;;;;7342421;19;110427;-91
2022/03/25 01:31:28;;;;;;;70.82;33.97;;;10.60;86.50;;;;;;7344004;19;111175;-91
2022/03/25 01:33:56;;;;;;;64.53;32.40;;;10.50;85.80;;;;;;7343064;19;110990;-91
2022/03/25 01:36:23;;;;;;;81.07;36.75;;;10.50;85.60;;;;;;7348104;19;110358;-91
2022/03/25 01:38:51;;;;;;;73.95;37.47;;;10.50;86.00;;;;;;7344493;19;111066;-90
2022/03/25 01:41:18;;;;;;;69.88;34.28;;;10.40;88.20;;;;;;7344311;19;110554;-91
2022/03/25 01:43:57;;;;;;;69.85;36.58;;;10.40;87.70;;;;;;7344570;19;112420;-91
2022/03/25 01:46:25;;;;;;;65.95;34.08;;;10.40;88.30;;;;;;7341451;19;114527;-91
2022/03/25 01:48:52;;;;;;;64.97;32.55;;;10.30;87.70;;;;;;7343315;19;110299;-91
2022/03/25 01:51:27;;;;;;;62.60;32.53;;;10.30;86.80;;;;;;7341515;19;110669;-91
2022/03/25 01:54:03;;;;;;;70.20;32.20;;;10.30;87.00;;;;;;7341686;19;111853;-91
2022/03/25 01:56:32;;;;;;;81.45;36.80;;;10.30;87.00;;;;;;7342548;19;110520;-91
2022/03/25 01:58:59;;;;;;;72.78;36.35;;;10.20;88.20;;;;;;7349839;19;110432;-91
2022/03/25 02:01:26;;;;;;;69.25;32.67;;;10.10;88.50;;;;;;7341942;19;109902;-91
2022/03/25 02:03:53;;;;;;;69.80;34.25;;;10.10;87.80;;;;;;7340970;19;111675;-91
2022/03/25 02:06:21;;;;;;;70.68;34.70;;;10.10;87.60;;;;;;7343311;19;114065;-91
2022/03/25 02:08:48;;;;;;;73.50;34.53;;;10.10;87.30;;;;;;7340420;19;110700;-92
2022/03/25 02:11:17;;;;;;;66.72;34.70;;;10.10;87.50;;;;;;7341308;19;113822;-91
2022/03/25 02:13:45;;;;;;;70.53;34.03;;;10.00;87.60;;;;;;7339745;19;112068;-91
2022/03/25 02:16:13;;;;;;;78.90;36.53;;;10.00;87.90;;;;;;7341723;19;110562;-91
2022/03/25 02:18:40;;;;;;;75.75;36.72;;;10.00;88.10;;;;;;7342527;19;113599;-91
2022/03/25 02:21:07;;;;;;;72.10;35.00;;;9.90;88.40;;;;;;7348248;19;115007;-91
2022/03/25 02:23:34;;;;;;;71.85;36.45;;;9.90;89.10;;;;;;7342848;19;114291;-91
2022/03/25 02:26:02;;;;;;;72.35;36.67;;;9.90;89.80;;;;;;7341877;19;110778;-91
2022/03/25 02:28:29;;;;;;;73.50;35.22;;;9.80;89.80;;;;;;7342874;19;111803;-91
2022/03/25 02:30:56;;;;;;;75.65;37.67;;;9.80;89.80;;;;;;7341660;19;111490;-91
2022/03/25 02:33:23;;;;;;;73.90;36.67;;;9.80;90.20;;;;;;7340082;19;111626;-91
2022/03/25 02:35:51;;;;;;;73.57;35.70;;;9.80;90.20;;;;;;7340860;19;110042;-91
2022/03/25 02:38:20;;;;;;;76.63;35.97;;;9.80;90.20;;;;;;7342813;19;113855;-91
2022/03/25 02:40:48;;;;;;;75.25;36.63;;;9.80;90.60;;;;;;7341426;19;109901;-91
2022/03/25 02:43:16;;;;;;;80.40;37.30;;;9.80;90.40;;;;;;7347921;19;112403;-91
2022/03/25 02:45:44;;;;;;;79.20;37.15;;;9.80;90.50;;;;;;7338729;19;113232;-92
2022/03/25 02:48:14;;;;;;;74.70;36.33;;;9.80;90.90;;;;;;7342440;19;110345;-91
2022/03/25 02:50:41;;;;;;;75.88;36.22;;;9.70;90.70;;;;;;7341717;19;111800;-91
2022/03/25 02:53:08;;;;;;;75.15;36.20;;;9.70;90.70;;;;;;7338323;19;111259;-91
2022/03/25 02:55:35;;;;;;;73.15;35.92;;;9.70;91.10;;;;;;7339705;19;110532;-91
2022/03/25 02:58:03;;;;;;;77.93;36.45;;;9.70;91.00;;;;;;7339423;19;110729;-91
2022/03/25 03:00:30;;;;;;;66.65;34.05;;;9.70;91.00;;;;;;7340941;19;115047;-91
2022/03/25 03:03:00;;;;;;;73.53;34.78;;;9.70;91.20;;;;;;7341669;19;110959;-91
2022/03/25 03:05:29;;;;;;;73.40;35.67;;;9.70;91.50;;;;;;7346748;19;110545;-91
2022/03/25 03:07:56;;;;;;;70.35;34.40;;;9.70;91.30;;;;;;7341212;19;110620;-91
2022/03/25 03:10:24;;;;;;;70.47;33.85;;;9.60;91.10;;;;;;7341932;19;112164;-92
2022/03/25 03:12:54;;;;;;;75.75;34.83;;;9.60;91.10;;;;;;7339098;19;111882;-91
2022/03/25 03:15:22;;;;;;;71.43;33.88;;;9.60;91.10;;;;;;7340496;19;111193;-90
2022/03/25 03:17:50;;;;;;;67.68;34.00;;;9.60;91.20;;;;;;7347616;19;111135;-91
2022/03/25 03:20:18;;;;;;;66.88;33.35;;;9.60;91.60;;;;;;7348339;19;111895;-91
2022/03/25 03:22:45;;;;;;;72.50;34.22;;;9.50;91.50;;;;;;7346793;19;111077;-91
2022/03/25 03:25:13;;;;;;;72.85;34.58;;;9.50;91.40;;;;;;7351609;19;113758;-91
2022/03/25 03:27:40;;;;;;;68.80;33.47;;;9.50;91.50;;;;;;7348649;19;110207;-91
2022/03/25 03:30:09;;;;;;;67.65;34.10;;;9.50;91.30;;;;;;7346524;19;110669;-91
2022/03/25 03:32:37;;;;;;;66.80;33.30;;;9.50;91.30;;;;;;7344381;19;110338;-91
2022/03/25 03:35:06;;;;;;;72.35;33.50;;;9.40;91.30;;;;;;7345785;19;111518;-91
2022/03/25 03:37:53;;;;;;;64.65;33.42;;;9.40;91.30;;;;;;7344432;19;111513;-91
2022/03/25 03:40:20;;;;;;;63.47;33.35;;;9.40;92.00;;;;;;7346309;19;110863;-91
2022/03/25 03:42:48;;;;;;;66.68;32.58;;;9.30;91.70;;;;;;7346852;19;110523;-91
2022/03/25 03:45:16;;;;;;;74.55;33.15;;;9.30;91.90;;;;;;7345629;19;113855;-92
2022/03/25 03:47:43;;;;;;;70.57;33.10;;;9.20;91.90;;;;;;7352473;19;111934;-94
2022/03/25 03:50:13;;;;;;;68.22;32.08;;;9.20;91.70;;;;;;7345157;19;111446;-92
2022/03/25 03:52:41;;;;;;;64.95;31.48;;;9.20;91.50;;;;;;7340801;19;112281;-91
2022/03/25 03:55:10;;;;;;;65.35;32.55;;;9.20;91.50;;;;;;7346006;19;111045;-91
2022/03/25 03:57:38;;;;;;;69.22;32.90;;;9.10;91.80;;;;;;7344324;19;111171;-91
2022/03/25 04:00:11;;;;;;;65.10;31.40;;;9.10;91.70;;;;;;7346318;19;113322;-92
2022/03/25 04:02:44;;;;;;;67.68;30.35;;;9.00;91.80;;;;;;7342586;19;110549;-83
2022/03/25 04:05:13;;;;;;;69.13;31.50;;;9.00;91.70;;;;;;7335944;19;111651;-83
2022/03/25 04:07:44;;;;;;;66.05;32.38;;;8.90;92.00;;;;;;7339104;19;111865;-83
2022/03/25 04:10:27;;;;;;;64.03;31.42;;;8.80;92.10;;;;;;7342472;19;109983;-83
2022/03/25 04:12:54;;;;;;;63.72;31.85;;;8.70;92.10;;;;;;7336730;19;111941;-83
2022/03/25 04:15:21;;;;;;;67.28;32.72;;;8.50;92.30;;;;;;7338340;19;110235;-84
2022/03/25 04:17:48;;;;;;;;;;;8.40;92.80;;;;;;7341438;19;111642;-83
2022/03/25 04:20:15;;;;;;;69.38;31.75;;;8.20;93.90;;;;;;7347090;19;109222;-83
2022/03/25 04:22:44;;;;;;;66.53;33.13;;;8.00;93.60;;;;;;7338316;19;110255;-83
2022/03/25 04:25:13;;;;;;;64.78;31.95;;;7.90;93.90;;;;;;7339725;19;111388;-83
2022/03/25 04:27:47;;;;;;;69.80;33.53;;;7.90;93.80;;;;;;7337315;19;111701;-83
2022/03/25 04:30:18;;;;;;;64.93;30.98;;;7.90;93.80;;;;;;7337039;19;111001;-83
2022/03/25 04:32:45;;;;;;;70.65;32.92;;;7.80;94.00;;;;;;7342272;19;111474;-83
2022/03/25 04:35:13;;;;;;;72.32;33.20;;;7.80;94.00;;;;;;7339606;19;111921;-84
2022/03/25 04:37:41;;;;;;;70.73;33.50;;;7.80;94.20;;;;;;7339688;19;111399;-83
2022/03/25 04:40:11;;;;;;;70.33;31.77;;;7.80;94.50;;;;;;7338528;19;110779;-83
2022/03/25 04:42:38;;;;;;;65.47;31.85;;;7.70;94.40;;;;;;7338617;19;110250;-83
2022/03/25 04:45:06;;;;;;;68.20;32.47;;;7.60;94.50;;;;;;7340667;19;111696;-84
2022/03/25 04:47:33;;;;;;;66.70;31.93;;;7.60;94.40;;;;;;7338052;19;111801;-83
2022/03/25 04:50:00;;;;;;;67.57;31.63;;;7.50;94.90;;;;;;7337189;19;110407;-83
2022/03/25 04:52:27;;;;;;;69.38;31.45;;;7.40;94.70;;;;;;7336990;19;114516;-83
2022/03/25 04:54:54;;;;;;;72.53;32.17;;;7.40;94.80;;;;;;7340455;19;111758;-83
2022/03/25 04:57:22;;;;;;;71.07;32.90;;;7.30;94.90;;;;;;7336161;19;111595;-83
2022/03/25 04:59:49;;;;;;;69.73;33.00;;;7.30;95.20;;;;;;7338716;19;112100;-83
2022/03/25 05:02:16;;;;;;;67.05;30.88;;;7.30;95.10;;;;;;7338516;19;110407;-83
2022/03/25 05:04:43;;;;;;;63.67;30.23;;;7.20;95.20;;;;;;7337886;19;110711;-83
2022/03/25 05:07:15;;;;;;;61.60;30.73;;;7.20;95.20;;;;;;7336333;19;111896;-83
2022/03/25 05:09:42;;;;;;;62.77;29.90;;;7.20;95.50;;;;;;7338237;19;110409;-84
2022/03/25 05:12:12;;;;;;;63.90;28.53;;;7.10;95.30;;;;;;7337845;19;111247;-83
2022/03/25 05:14:40;;;;;;;61.47;29.00;;;7.10;94.90;;;;;;7339542;19;112549;-83
2022/03/25 05:17:07;;;;;;;67.77;31.07;;;7.20;94.60;;;;;;7338830;19;111402;-83
2022/03/25 05:19:34;;;;;;;65.90;29.93;;;7.20;94.90;;;;;;7337834;19;111797;-83
2022/03/25 05:22:05;;;;;;;61.63;29.87;;;7.20;95.00;;;;;;7336884;19;110522;-83
2022/03/25 05:24:32;;;;;;;63.63;29.37;;;7.30;95.00;;;;;;7337097;19;110784;-83
2022/03/25 05:26:59;;;;;;;74.33;31.57;;;7.20;94.90;;;;;;7337981;19;112160;-83
2022/03/25 05:29:27;;;;;;;66.37;30.40;;;7.30;95.10;;;;;;7336450;19;110447;-83
2022/03/25 05:31:55;;;;;;;61.53;30.00;;;7.30;95.00;;;;;;7337989;19;112897;-83
2022/03/25 05:34:22;;;;;;;68.70;30.63;;;7.30;94.90;;;;;;7335128;19;110847;-83
2022/03/25 05:36:49;;;;;;;69.33;31.17;;;7.20;95.00;;;;;;7343308;19;110298;-84
2022/03/25 05:39:16;;;;;;;68.03;31.17;;;7.20;95.00;;;;;;7334242;19;111795;-83
2022/03/25 05:41:44;;;;;;;67.10;31.10;;;7.20;95.70;;;;;;7337332;19;113339;-83
2022/03/25 05:44:11;;;;;;;64.20;30.93;;;7.10;95.40;;;;;;7336584;19;111402;-83
2022/03/25 05:46:39;;;;;;;70.33;30.50;;;7.10;95.40;;;;;;7336894;19;113385;-84
2022/03/25 05:49:06;;;;;;;65.87;31.23;;;7.10;95.40;;;;;;7335237;19;111358;-84
2022/03/25 05:51:34;;;;;;;66.27;29.37;;;7.10;95.80;;;;;;7332602;19;113587;-83
2022/03/25 05:54:01;;;;;;;69.33;31.03;;;7.10;95.30;;;;;;7334183;19;112228;-83
2022/03/25 05:56:29;;;;;;;65.73;30.77;;;7.10;95.10;;;;;;7334232;19;112649;-83
2022/03/25 05:58:56;;;;;;;66.70;29.80;;;7.10;95.40;;;;;;7340980;19;111753;-83
2022/03/25 06:01:23;;;;;;;67.50;30.60;;;7.10;95.30;;;;;;7334125;19;110496;-83
2022/03/25 06:03:50;;;;;;;62.93;30.83;;;7.10;95.60;;;;;;7336884;19;111697;-83
2022/03/25 06:06:17;;;;;;;;;;;7.10;96.20;;;;;;7337260;19;112161;-83
2022/03/25 06:08:49;;;;;;;65.00;29.17;;;7.00;97.40;;;;;;7341191;19;110417;-83
2022/03/25 06:11:16;;;;;;;67.43;29.20;;;7.10;96.00;;;;;;7334109;19;111300;-84
2022/03/25 06:13:43;;;;;;;68.10;28.73;;;7.20;95.80;;;;;;7334314;19;111824;-83
2022/03/25 06:16:10;;;;;;;;;;;7.30;95.60;;;;;;7334504;19;113120;-83
2022/03/25 06:18:37;;;;;;;65.53;29.87;;;7.20;97.10;;;;;;7342902;19;111262;-84
2022/03/25 06:21:04;;;;;;;65.33;32.00;;;7.20;96.50;;;;;;7341854;19;111748;-84
2022/03/25 06:23:32;;;;;;;65.20;29.90;;;7.20;96.70;;;;;;7336072;19;111746;-85
2022/03/25 06:25:59;;;;;;;68.67;32.57;;;7.30;96.80;;;;;;7334951;19;112182;-83
2022/03/25 06:28:27;;;;;;;63.77;31.60;;;7.30;96.90;;;;;;7334794;19;115259;-85
2022/03/25 06:30:54;;;;;;;64.43;30.77;;;7.40;96.60;;;;;;7335960;19;111774;-84
2022/03/25 06:33:21;;;;;;;64.83;30.90;;;7.50;96.50;;;;;;7334273;19;112508;-84
2022/03/25 06:35:48;;;;;;;71.50;31.50;;;7.50;96.40;;;;;;7335370;19;110744;-83
2022/03/25 06:38:15;;;;;;;;;;;7.60;96.60;;;;;;7336825;19;111649;-84
2022/03/25 06:40:42;;;;;;;65.43;30.13;;;7.70;97.00;;;;;;7342781;19;109200;-83
2022/03/25 06:43:09;;;;;;;60.20;29.37;;;7.70;96.70;;;;;;7341235;19;110934;-84
2022/03/25 06:45:36;;;;;;;66.13;31.87;;;7.80;96.30;;;;;;7335854;19;110513;-83
2022/03/25 06:48:04;;;;;;;65.47;30.73;;;7.80;96.50;;;;;;7333565;19;111007;-84
2022/03/25 06:50:31;;;;;;;68.57;31.43;;;7.90;96.50;;;;;;7336001;19;111494;-84
2022/03/25 06:53:01;;;;;;;63.80;31.73;;;7.90;96.40;;;;;;7339457;19;112223;-84
2022/03/25 06:55:30;;;;;;;70.72;32.97;;;8.00;96.60;;;;;;7340512;19;111181;-84
2022/03/25 06:57:57;;;;;;;67.20;32.13;;;8.10;96.50;;;;;;7341916;19;114771;-84
2022/03/25 07:00:24;;;;;;;64.85;31.27;;;8.10;96.50;;;;;;7342088;19;112119;-84
2022/03/25 07:02:52;;;;;;;67.38;34.33;;;8.10;96.70;;;;;;7341211;19;110551;-84
2022/03/25 07:05:21;;;;;;;68.23;32.00;;;8.20;96.40;;;;;;7346934;19;111299;-84
2022/03/25 07:07:48;;;;;;;67.60;32.53;;;8.40;96.20;;;;;;7340135;19;111171;-85
2022/03/25 07:10:17;;;;;;;66.25;33.00;;;8.40;96.40;;;;;;7340640;19;111612;-84
2022/03/25 07:12:45;;;;;;;66.88;33.53;;;8.50;96.40;;;;;;7342298;19;111806;-84
2022/03/25 07:15:13;;;;;;;68.60;33.72;;;8.50;96.30;;;;;;7338509;19;111307;-84
2022/03/25 07:17:43;;;;;;;69.45;34.22;;;8.50;96.40;;;;;;7337508;19;111583;-85
2022/03/25 07:20:14;;;;;;;68.68;32.90;;;8.60;96.50;;;;;;7338570;19;111112;-85
2022/03/25 07:22:43;;;;;;;66.97;33.85;;;8.70;96.20;;;;;;7339168;19;111362;-85
2022/03/25 07:25:11;;;;;;;65.40;32.92;;;8.80;96.10;;;;;;7344461;19;111408;-86
2022/03/25 07:27:39;;;;;;;67.15;34.33;;;8.90;95.80;;;;;;7339907;19;110229;-86
2022/03/25 07:30:07;;;;;;;63.30;32.97;;;8.90;95.60;;;;;;7341418;19;111060;-87
2022/03/25 07:32:34;;;;;;;72.68;33.83;;;8.90;95.60;;;;;;7342393;19;111815;-85
2022/03/25 07:35:01;;;;;;;71.45;34.58;;;8.90;95.50;;;;;;7340478;19;109928;-87
2022/03/25 07:37:28;;;;;;;72.95;35.25;;;9.00;95.40;;;;;;7341356;19;112593;-85
2022/03/25 07:39:55;;;;;;;74.32;35.58;;;9.10;95.50;;;;;;7342369;19;111843;-85
2022/03/25 07:42:23;;;;;;;76.68;35.08;;;9.20;95.20;;;;;;7340192;19;111879;-85
2022/03/25 07:44:50;;;;;;;72.43;35.83;;;9.30;94.90;;;;;;7342445;19;112623;-85
2022/03/25 07:47:17;;;;;;;72.40;36.00;;;9.30;94.90;;;;;;7345616;19;112051;-86
2022/03/25 07:49:45;;;;;;;79.60;36.13;;;9.40;95.10;;;;;;7342377;19;111580;-86
2022/03/25 07:52:14;;;;;;;79.78;37.22;;;9.50;95.00;;;;;;7340069;19;111770;-86
2022/03/25 07:54:41;;;;;;;78.13;37.53;;;9.60;94.70;;;;;;7341126;19;111044;-86
2022/03/25 07:57:08;;;;;;;73.53;38.15;;;9.60;94.40;;;;;;7337941;19;111717;-86
2022/03/25 07:59:36;;;;;;;81.07;38.25;;;9.70;94.30;;;;;;7339818;19;111173;-86
2022/03/25 08:02:03;;;;;;;76.53;39.10;;;9.70;94.20;;;;;;7335607;19;111280;-87
2022/03/25 08:04:30;;;;;;;85.63;40.88;;;9.80;94.40;;;;;;7341809;19;111426;-85
2022/03/25 08:06:58;;;;;;;79.60;38.70;;;10.00;94.40;;;;;;7340207;19;110983;-85
2022/03/25 08:09:25;;;;;;;81.97;39.72;;;10.10;94.10;;;;;;7347315;19;110899;-85
2022/03/25 08:11:52;;;;;;;86.10;41.28;;;10.20;93.70;;;;;;7342233;19;112007;-86
2022/03/25 08:14:22;;;;;;;83.07;41.72;;;10.20;93.70;;;;;;7336999;19;112543;-86
2022/03/25 08:16:49;;;;;;;86.78;42.17;;;10.40;93.80;;;;;;7339293;19;114296;-86
2022/03/25 08:19:17;;;;;;;77.60;41.30;;;10.40;93.70;;;;;;7339951;19;111971;-86
2022/03/25 08:21:44;;;;;;;79.05;40.80;;;10.50;93.60;;;;;;7339134;19;113171;-86
2022/03/25 08:29:42;;;;;;;80.38;41.58;;;10.80;93.30;;;;;;7340526;19;110974;-85
2022/03/25 08:32:09;;;;;;;81.80;42.63;;;11.00;93.20;;;;;;7345198;19;111280;-86
2022/03/25 08:34:36;;;;;;;84.18;41.83;;;11.10;93.10;;;;;;7339669;19;110602;-87
2022/03/25 08:37:03;;;;;;;79.18;41.60;;;11.20;93.20;;;;;;7340335;19;111122;-86
2022/03/25 08:39:31;;;;;;;82.85;42.05;;;11.30;92.80;;;;;;7340226;19;112160;-86
2022/03/25 08:41:58;;;;;;;84.93;42.72;;;11.40;92.60;;;;;;7340015;19;110369;-86
2022/03/25 08:44:25;;;;;;;;;;;11.50;92.20;;;;;;7339232;19;111805;-86
2022/03/25 08:46:52;;;;;;;80.93;39.15;;;11.50;92.10;;;;;;7346302;19;109031;-86
2022/03/25 08:49:19;;;;;;;79.97;41.17;;;11.60;91.80;;;;;;7340617;19;110203;-85
2022/03/25 08:51:46;;;;;;;79.68;39.75;;;11.60;91.70;;;;;;7339258;19;112315;-86
2022/03/25 08:54:14;;;;;;;74.80;39.15;;;11.80;92.00;;;;;;7344606;19;112475;-86
2022/03/25 08:56:41;;;;;;;72.95;39.20;;;11.90;91.40;;;;;;7338093;19;114687;-87
2022/03/25 08:59:09;;;;;;;77.88;38.17;;;11.90;90.70;;;;;;7337281;19;111218;-88
2022/03/25 09:01:36;;;;;;;72.22;38.45;;;12.00;90.40;;;;;;7336768;19;110444;-88
2022/03/25 09:04:04;;;;;;;77.32;36.60;;;12.10;90.30;;;;;;7337762;19;110780;-85
2022/03/25 09:06:31;;;;;;;72.53;35.30;;;12.20;90.30;;;;;;7336962;19;111796;-85
2022/03/25 09:08:58;;;;;;;68.93;35.72;;;12.40;90.20;;;;;;7338693;19;112067;-88
2022/03/25 09:11:25;;;;;;;60.90;29.83;;;12.60;89.30;;;;;;7339641;19;111264;-89
2022/03/25 09:13:52;;;;;;;56.28;29.85;;;12.60;85.10;;;;;;7338622;19;112304;-86
2022/03/25 09:16:19;;;;;;;61.60;30.30;;;12.70;83.40;;;;;;7341136;19;110929;-86
2022/03/25 09:18:46;;;;;;;55.33;27.73;;;12.80;83.80;;;;;;7340050;19;111367;-87
2022/03/25 09:21:13;;;;;;;54.10;26.73;;;12.90;83.10;;;;;;7339265;19;110228;-88
2022/03/25 09:23:41;;;;;;;54.75;27.95;;;13.00;81.70;;;;;;7339502;19;114051;-86
2022/03/25 09:26:08;;;;;;;50.28;25.52;;;13.10;81.10;;;;;;7339347;19;111756;-87
2022/03/25 09:28:35;;;;;;;53.33;24.63;;;13.20;80.60;;;;;;7339103;19;110776;-88
2022/03/25 09:31:02;;;;;;;49.72;24.42;;;13.30;78.20;;;;;;7338776;19;111408;-89
2022/03/25 09:33:29;;;;;;;51.10;25.58;;;13.40;77.50;;;;;;7337147;19;111053;-87
2022/03/25 09:35:57;;;;;;;51.20;25.30;;;13.40;76.10;;;;;;7343547;19;110387;-89
2022/03/25 09:38:25;;;;;;;52.78;25.77;;;13.50;77.10;;;;;;7338290;19;112038;-86
2022/03/25 09:41:01;;;;;;;49.10;25.52;;;13.60;76.60;;;;;;7339461;19;110818;-89
2022/03/25 09:43:28;;;;;;;47.08;27.33;;;13.60;74.60;;;;;;7338449;19;114632;-88
2022/03/25 09:45:56;;;;;;;45.92;26.67;;;13.70;75.20;;;;;;7339572;19;111708;-87
2022/03/25 09:48:23;;;;;;;45.30;25.42;;;13.70;74.30;;;;;;7338839;19;110969;-89
2022/03/25 09:50:50;;;;;;;44.25;24.77;;;13.80;72.60;;;;;;7340049;19;112719;-91
2022/03/25 09:53:38;;;;;;;52.53;26.87;;;13.90;74.70;;;;;;7338686;19;113845;-89
2022/03/25 09:56:06;;;;;;;53.97;28.80;;;14.00;74.20;;;;;;7336394;19;110946;-88
2022/03/25 09:58:34;;;;;;;52.53;27.65;;;14.10;74.50;;;;;;7343900;19;111500;-86
2022/03/25 10:01:01;;;;;;;55.95;28.88;;;14.20;74.60;;;;;;7338597;19;110407;-87
2022/03/25 10:03:32;;;;;;;54.10;27.15;;;14.40;75.50;;;;;;7338060;19;110337;-87
2022/03/25 10:06:01;;;;;;;47.92;26.58;;;14.50;73.20;;;;;;7336265;19;112094;-88
2022/03/25 10:08:40;;;;;;;47.42;25.80;;;14.50;72.70;;;;;;7338467;19;110152;-87
2022/03/25 10:11:19;;;;;;;51.15;26.92;;;14.60;72.20;;;;;;7336629;19;110834;-87
2022/03/25 10:13:47;;;;;;;51.65;27.02;;;14.70;71.10;;;;;;7336980;19;112949;-88
2022/03/25 10:16:28;;;;;;;48.00;25.30;;;14.80;71.90;;;;;;7336172;19;110282;-89
2022/03/25 10:18:56;;;;;;;52.70;25.83;;;14.90;69.70;;;;;;7337219;19;110745;-86
2022/03/25 10:21:24;;;;;;;49.30;27.08;;;14.90;68.80;;;;;;7342140;19;112103;-89
2022/03/25 10:23:52;;;;;;;41.67;24.30;;;15.00;70.70;;;;;;7335569;19;110675;-86
2022/03/25 10:26:19;;;;;;;50.15;25.50;;;15.00;69.40;;;;;;7338089;19;112028;-90
2022/03/25 10:28:47;;;;;;;58.20;26.35;;;15.20;69.80;;;;;;7345219;19;109924;-89
2022/03/25 10:31:17;;;;;;;47.30;26.10;;;15.20;68.10;;;;;;7344069;19;111674;-86
2022/03/25 10:33:47;;;;;;;51.60;26.05;;;15.30;69.80;;;;;;7341793;19;113086;-88
2022/03/25 10:36:17;;;;;;;52.78;27.13;;;15.50;68.30;;;;;;7342433;19;109958;-87
2022/03/25 10:38:47;;;;;;;52.42;24.67;;;15.50;68.50;;;;;;7343772;19;110684;-86
2022/03/25 10:41:19;;;;;;;47.85;25.17;;;15.60;67.80;;;;;;7342206;19;116062;-89
2022/03/25 10:44:04;;;;;;;49.00;24.55;;;15.70;67.50;;;;;;7347041;19;110421;-86
2022/03/25 10:46:41;;;;;;;48.47;24.00;;;15.70;66.30;;;;;;7342377;19;112587;-89
2022/03/25 10:49:11;;;;;;;47.80;27.77;;;15.70;66.30;;;;;;7341548;19;111149;-87
2022/03/25 10:51:40;;;;;;;51.10;28.33;;;15.90;66.70;;;;;;7341570;19;110696;-88
2022/03/25 10:54:09;;;;;;;49.63;28.52;;;15.90;65.90;;;;;;7344274;19;111384;-88
2022/03/25 10:56:46;;;;;;;49.25;26.10;;;15.90;66.20;;;;;;7342468;19;110019;-88
2022/03/25 10:59:40;;;;;;;45.55;25.50;;;16.00;65.40;;;;;;7344659;19;111494;-90
2022/03/25 11:02:08;;;;;;;43.17;23.30;;;16.00;63.70;;;;;;7343295;19;112159;-84
2022/03/25 11:04:36;;;;;;;46.80;25.95;;;15.90;62.80;;;;;;7343519;19;110306;-87
2022/03/25 11:07:09;;;;;;;51.47;26.08;;;16.00;64.10;;;;;;7348045;19;115346;-87
2022/03/25 11:09:36;;;;;;;47.08;25.55;;;16.10;65.40;;;;;;7343276;19;110623;-87
2022/03/25 11:12:03;;;;;;;45.65;25.10;;;16.30;65.90;;;;;;7344280;19;111770;-88
2022/03/25 11:14:32;;;;;;;48.15;25.77;;;16.40;64.50;;;;;;7344434;19;112323;-87
2022/03/25 11:17:01;;;;;;;43.55;23.80;;;16.50;63.50;;;;;;7339967;19;110364;-89
2022/03/25 11:19:29;;;;;;;44.15;22.25;;;16.40;63.00;;;;;;7343745;19;111883;-87
2022/03/25 11:21:57;;;;;;;40.90;23.23;;;16.60;63.70;;;;;;7344930;19;113931;-90
2022/03/25 11:24:47;;;;;;;40.17;23.30;;;16.70;61.80;;;;;;7342985;19;110793;-89
2022/03/25 11:27:43;;;;;;;40.45;22.08;;;16.60;63.10;;;;;;7343420;19;111539;-88
2022/03/25 11:30:13;;;;;;;40.70;20.27;;;16.80;63.90;;;;;;7346079;19;112306;-88
2022/03/25 11:33:07;;;;;;;41.65;22.58;;;17.00;62.40;;;;;;7342572;19;111843;-87
2022/03/25 11:35:36;;;;;;;42.10;22.25;;;17.10;59.60;;;;;;7343039;19;111801;-88
2022/03/25 11:38:12;;;;;;;47.08;22.25;;;17.00;60.40;;;;;;7342033;19;110282;-86
2022/03/25 11:40:44;;;;;;;42.67;23.48;;;16.90;59.20;;;;;;7341348;19;111507;-87
2022/03/25 11:43:27;;;;;;;41.30;22.77;;;16.90;59.10;;;;;;7341993;19;112146;-86
2022/03/25 11:46:00;;;;;;;42.92;21.23;;;17.10;59.50;;;;;;7341133;19;111073;-86
2022/03/25 11:48:27;;;;;;;41.72;21.83;;;17.30;59.40;;;;;;7341430;19;111723;-86
2022/03/25 11:50:55;;;;;;;37.28;20.73;;;17.50;59.00;;;;;;7347039;19;111288;-88
2022/03/25 11:53:23;;;;;;;41.67;21.75;;;17.70;59.30;;;;;;7339828;19;111394;-86
2022/03/25 11:56:01;;;;;;;46.97;23.60;;;17.80;60.30;;;;;;7340585;19;112988;-88
2022/03/25 11:58:30;;;;;;;39.38;21.60;;;17.90;60.10;;;;;;7342171;19;111381;-89
2022/03/25 12:01:12;;;;;;;38.53;22.08;;;17.90;58.20;;;;;;7339446;19;110887;-87
2022/03/25 12:03:43;;;;;;;37.63;20.48;;;17.80;58.30;;;;;;7339477;19;115917;-86
2022/03/25 12:06:14;;;;;;;41.22;21.20;;;17.90;57.40;;;;;;7341588;19;111234;-88
2022/03/25 12:09:06;;;;;;;36.15;21.45;;;18.30;57.00;;;;;;7341863;19;114276;-87
2022/03/25 12:11:50;;;;;;;46.70;23.10;;;18.50;57.60;;;;;;7339794;19;115274;-90
2022/03/25 12:14:21;;;;;;;42.88;22.50;;;18.60;57.30;;;;;;7344421;19;110542;-86
2022/03/25 12:16:48;;;;;;;43.83;24.10;;;18.40;56.90;;;;;;7337867;19;114514;-88
2022/03/25 12:19:28;;;;;;;40.00;22.30;;;18.40;57.10;;;;;;7339477;19;110620;-87
2022/03/25 12:21:59;;;;;;;36.85;21.38;;;18.50;57.20;;;;;;7340870;19;111635;-87
2022/03/25 12:24:27;;;;;;;48.75;23.90;;;18.60;58.00;;;;;;7341441;19;111926;-87
2022/03/25 12:27:00;;;;;;;47.00;22.38;;;18.80;57.50;;;;;;7342571;19;110115;-88
2022/03/25 12:29:31;;;;;;;42.80;22.30;;;18.90;57.10;;;;;;7340680;19;114100;-87
2022/03/25 12:32:14;;;;;;;41.78;22.23;;;18.90;56.70;;;;;;7340202;19;111352;-87
2022/03/25 12:34:48;;;;;;;38.55;20.63;;;19.10;58.00;;;;;;7341452;19;110847;-88
2022/03/25 12:37:43;;;;;;;46.92;20.55;;;19.20;57.30;;;;;;7342934;19;111442;-87